Orondo, Washington
Current Conditions -  °F | °C
As of 4:55 AM on Saturday 25 Oct 2014 (Local Time) from KEAT Reporting Station
Overcast Overcast  
Wind Chill: 44°   Ceiling: 800
Heat Index: 47°   Visibility: 10mi
Dew Point: 44°   Wind: 6mph
Humidity: 90%   Direction: 290°WNW
Pressure: 29.79"   Gusts: NA
Location:  47.63°N, 120.22°W
Report Text: KEAT 251155Z AUTO 29005KT 10SM OVC008 08/07 A2979 RMK AO2 CIG 006V009 SLP089 60004 70020 T00830067 10089 20083 58031
Loading
Personal Weather Stations






























Interactive Weather Map
Tropical Storm Tracking
New forecast layout! Learn more

10-Day Weather Forecast

Advertisements
Track Severe Weather on mobile